首页
METAR-TAF:

METAR-TAF

机场 :

巴林, 巴林

巴林国际机场

纬度: 26-16N, 经度: 050-39E, 海拔: 2米

当前天气观测

该预报发布于16分钟前的03:00 UTC
风速8节,风向东南
温度 18°C
湿度 83%
气压 1016 hPa
能見度: 9000

METAR: OBBI 200300Z 14008KT 9000 NSC 18/15 Q1016 BECMG 5000 DU

时间: 06:16 (03:16 UTC)

预报

该预报发布于4小时和16分钟前的23:00 UTC
预报有效从20日的 00点(UTC)到 21日的 06点(UTC)
风速13节,风向东南
能见度10公里或以上
1500米以下无云,无积雨云
成为
从 20日的 05点(UTC)到 20日的 07点(UTC)
风速17节,风向西北,有时为27节阵风
能見度: 4000
散云层高于3000英尺
高吹尘
短暂存在
从 20日的 05点(UTC)到 20日的 17点(UTC)
能見度: 2000
几率 30% :
短暂存在
从 20日的 06点(UTC)到 20日的 10点(UTC)
能見度: 0800

TAF: OBBI 192300Z 2000/2106 14013KT CAVOK BECMG 2005/2007 32017G27KT 4000 BLDU SCT030 TEMPO 2005/2017 2000 PROB30 TEMPO 2006/2010 0800 DS

超过4000个机场的气象观测和天气预报(METAR&TAF报告)。

可查询的气象台以黄色和红色小点在地图上表示。

将鼠标移到小点上方,可查看气象台名称。

然后点击查看天气观测和预报。

如需切换地图:点击带黑十字的绿色按钮放大地图;点击带横线的绿色按钮缩小地图;或者点击绿色箭头查看邻近地区的地图。


METAR-TAF: